Time;durP1;ratioP1;P1;durP2;ratioP2;P2;SDS_P1;SDS_P2;PMS_P1;PMS_P2;Temp;Humidity;BMP_temperature;BMP_pressure;BME280_temperature;BME280_humidity;BME280_pressure;Samples;Min_cycle;Max_cycle;Signal;HPM_P1;HPM_P2
2023/04/17 00:00:47;;;;;;;20.03;15.77;;;12.80;77.70;;;15.76;53.23;102463.81;5033141;28;20210;-61
2023/04/17 00:03:15;;;;;;;18.43;15.53;;;12.90;77.80;;;15.73;53.05;102466.78;5033850;28;20194;-63
2023/04/17 00:05:45;;;;;;;17.23;15.20;;;12.80;77.70;;;15.69;53.41;102471.59;5034094;28;20216;-60
2023/04/17 00:08:13;;;;;;;17.93;15.63;;;12.80;77.80;;;15.67;53.05;102468.28;5049310;28;20194;-60
2023/04/17 00:10:40;;;;;;;18.30;16.37;;;12.80;77.80;;;15.65;53.42;102472.91;5034076;28;20198;-61
2023/04/17 00:13:07;;;;;;;16.03;14.40;;;12.80;78.00;;;15.62;53.14;102464.47;5033752;28;20677;-65
2023/04/17 00:15:34;;;;;;;15.90;14.20;;;12.80;78.00;;;15.60;53.30;102467.28;5033285;28;20218;-60
2023/04/17 00:18:01;;;;;;;17.00;15.03;;;12.70;77.90;;;15.57;53.24;102472.91;5033904;28;20194;-60
2023/04/17 00:20:27;;;;;;;17.57;15.67;;;12.70;78.00;;;15.55;53.12;102473.06;5034019;28;20230;-59
2023/04/17 00:22:54;;;;;;;17.33;15.60;;;12.70;78.10;;;15.53;53.37;102471.56;5033690;28;20199;-65
2023/04/17 00:25:23;;;;;;;15.80;14.13;;;12.70;78.40;;;15.54;53.32;102478.56;5034496;28;20206;-61
2023/04/17 00:27:50;;;;;;;15.80;14.10;;;12.70;78.50;;;15.55;53.31;102475.72;5037796;28;20194;-59
2023/04/17 00:30:17;;;;;;;17.87;15.97;;;12.60;78.40;;;15.55;53.84;102469.59;5038155;28;20186;-62
2023/04/17 00:32:44;;;;;;;18.27;15.83;;;12.60;78.60;;;15.55;53.64;102464.28;5037825;28;20655;-61
2023/04/17 00:35:11;;;;;;;17.37;15.50;;;12.60;78.70;;;15.56;53.75;102468.59;5037288;28;20241;-60
2023/04/17 00:37:38;;;;;;;17.90;16.00;;;12.60;78.80;;;15.55;53.99;102470.41;5032598;28;20203;-60
2023/04/17 00:40:07;;;;;;;17.80;15.93;;;12.70;79.10;;;15.56;53.66;102465.94;5017902;28;20214;-59
2023/04/17 00:42:35;;;;;;;17.83;16.00;;;12.60;78.90;;;15.54;53.67;102468.78;5028242;28;20198;-58
2023/04/17 00:45:04;;;;;;;18.10;16.20;;;12.60;78.80;;;15.50;53.62;102461.28;5037482;28;20218;-61
2023/04/17 00:47:32;;;;;;;17.97;15.67;;;12.60;78.90;;;15.48;53.81;102468.59;5037497;28;20191;-63
2023/04/17 00:49:59;;;;;;;19.30;16.63;;;12.60;79.00;;;15.45;53.85;102463.63;5037836;28;20190;-61
2023/04/17 00:52:31;;;;;;;19.17;16.73;;;12.60;78.90;;;15.42;53.79;102471.88;5039364;28;20190;-59
2023/04/17 00:54:59;;;;;;;18.30;16.40;;;12.50;78.90;;;15.39;54.00;102465.06;5036952;28;20218;-60
2023/04/17 00:57:26;;;;;;;19.50;17.33;;;12.50;79.20;;;15.37;54.18;102464.41;5037206;28;20187;-62
2023/04/17 00:59:56;;;;;;;18.37;15.73;;;12.50;79.20;;;15.35;54.04;102462.91;5037505;28;20202;-61
2023/04/17 01:02:24;;;;;;;19.17;16.00;;;12.50;79.30;;;15.33;54.03;102465.69;5035943;28;20198;-60
2023/04/17 01:04:51;;;;;;;18.27;16.37;;;12.50;79.30;;;15.32;54.35;102468.53;5036989;28;20293;-61
2023/04/17 01:07:18;;;;;;;18.23;16.33;;;12.50;79.50;;;15.31;54.31;102462.38;5037077;28;20210;-58
2023/04/17 01:09:45;;;;;;;19.40;17.37;;;12.40;79.60;;;15.32;54.23;102465.88;5035532;28;20198;-61
2023/04/17 01:12:18;;;;;;;18.43;16.33;;;12.40;79.60;;;15.33;53.99;102470.19;5036993;28;20281;-58
2023/04/17 01:14:45;;;;;;;18.83;16.63;;;12.40;79.70;;;15.32;54.36;102464.06;5027242;28;20276;-61
2023/04/17 01:17:13;;;;;;;18.97;16.97;;;12.40;79.70;;;15.31;54.15;102466.84;5036792;28;20213;-60
2023/04/17 01:19:40;;;;;;;19.33;17.27;;;12.40;79.70;;;15.30;54.27;102466.06;5036790;28;20202;-60
2023/04/17 01:22:07;;;;;;;17.93;16.13;;;12.40;79.60;;;15.31;54.31;102462.38;5035695;28;20210;-58
2023/04/17 01:24:36;;;;;;;18.70;16.80;;;12.40;79.70;;;15.32;54.61;102455.25;5035193;28;20577;-62
2023/04/17 01:27:03;;;;;;;20.67;18.57;;;12.40;79.80;;;15.36;54.65;102461.91;5016997;28;20558;-60
2023/04/17 01:29:30;;;;;;;20.73;18.37;;;12.50;80.00;;;15.37;54.26;102461.75;5016702;28;20195;-60
2023/04/17 01:31:57;;;;;;;19.00;17.00;;;12.50;79.90;;;15.37;54.26;102460.91;5017070;28;20187;-58
2023/04/17 01:34:24;;;;;;;21.83;19.00;;;12.50;79.90;;;15.38;54.29;102463.41;5016214;28;20683;-60
2023/04/17 01:36:52;;;;;;;20.60;18.27;;;12.50;79.80;;;15.38;54.36;102465.25;5017002;28;20653;-59
2023/04/17 01:39:19;;;;;;;19.20;17.17;;;12.50;79.70;;;15.38;54.38;102457.28;5016666;28;20199;-60
2023/04/17 01:41:47;;;;;;;19.13;16.73;;;12.50;79.80;;;15.38;54.72;102462.59;5027103;28;20265;-58
2023/04/17 01:44:15;;;;;;;20.40;18.40;;;12.50;80.10;;;15.39;54.45;102458.94;5036112;28;20222;-57
2023/04/17 01:46:42;;;;;;;20.47;18.43;;;12.50;79.90;;;15.41;54.33;102462.25;5036899;28;20297;-59
2023/04/17 01:49:10;;;;;;;19.87;17.17;;;12.50;79.70;;;15.38;54.34;102466.03;5036614;28;20726;-58
2023/04/17 01:51:37;;;;;;;21.70;19.13;;;12.50;79.70;;;15.39;54.33;102459.75;5036414;28;20190;-59
2023/04/17 01:54:05;;;;;;;19.47;17.47;;;12.50;80.50;;;15.41;54.98;102464.88;5035691;28;20527;-60
2023/04/17 01:56:32;;;;;;;22.03;18.70;;;12.50;79.60;;;15.39;54.55;102458.94;5036032;28;20195;-59
2023/04/17 01:59:00;;;;;;;21.97;19.23;;;12.50;79.70;;;15.36;54.36;102467.19;5036056;28;20191;-59
2023/04/17 02:01:27;;;;;;;21.53;19.23;;;12.50;79.60;;;15.33;54.41;102465.69;5036268;28;20218;-58
2023/04/17 02:03:54;;;;;;;21.90;18.80;;;12.40;79.60;;;15.31;54.36;102466.84;5035633;28;20190;-59
2023/04/17 02:06:21;;;;;;;20.80;18.27;;;12.40;79.60;;;15.30;54.87;102470.53;5035915;28;20186;-60
2023/04/17 02:08:48;;;;;;;22.40;18.13;;;12.40;80.10;;;15.31;54.81;102466.84;5034611;28;20571;-57
2023/04/17 02:11:15;;;;;;;20.33;18.23;;;12.40;80.10;;;15.31;54.55;102472.16;5051581;28;20195;-59
2023/04/17 02:13:42;;;;;;;21.03;17.10;;;12.40;80.00;;;15.32;55.10;102473.84;5035229;28;20193;-60
2023/04/17 02:16:11;;;;;;;20.43;18.23;;;12.40;80.20;;;15.32;54.94;102468.53;5035606;28;20233;-58
2023/04/17 02:18:38;;;;;;;24.53;20.20;;;12.50;80.40;;;15.34;54.89;102466.53;5036607;28;20186;-60
2023/04/17 02:21:05;;;;;;;19.60;17.60;;;12.50;80.20;;;15.34;54.85;102463.88;5037433;28;20548;-60
2023/04/17 02:23:32;;;;;;;20.63;18.53;;;12.50;79.90;;;15.33;55.06;102462.25;5035308;28;20194;-60
2023/04/17 02:25:59;;;;;;;23.20;20.70;;;12.50;79.90;;;15.32;54.61;102463.22;5033741;28;20222;-61
2023/04/17 02:28:26;;;;;;;22.50;19.43;;;12.50;79.50;;;15.29;54.70;102463.53;5035261;28;20201;-60
2023/04/17 02:30:53;;;;;;;23.03;19.47;;;12.50;79.60;;;15.26;55.09;102455.94;5034644;28;20201;-61
2023/04/17 02:33:22;;;;;;;22.57;20.03;;;12.50;79.70;;;15.29;54.63;102460.88;5035314;28;20616;-60
2023/04/17 02:35:49;;;;;;;22.03;19.70;;;12.50;79.90;;;15.29;54.97;102463.53;5035611;28;20257;-60
2023/04/17 02:38:16;;;;;;;21.33;19.07;;;12.50;80.00;;;15.31;54.85;102458.91;5035076;28;20197;-60
2023/04/17 02:40:43;;;;;;;21.03;18.83;;;12.50;79.80;;;15.31;54.58;102458.91;5034200;28;20217;-57
2023/04/17 02:43:12;;;;;;;20.23;18.20;;;12.50;79.90;;;15.34;54.79;102471.84;5035119;28;20201;-61
2023/04/17 02:45:39;;;;;;;22.63;19.20;;;12.50;80.00;;;15.35;54.88;102471.69;5035285;28;20207;-61
2023/04/17 02:48:06;;;;;;;21.97;19.63;;;12.50;79.90;;;15.36;54.79;102470.69;5034889;28;20270;-59
2023/04/17 02:50:35;;;;;;;22.30;19.27;;;12.50;79.80;;;15.38;54.62;102467.91;5035202;28;20194;-58
2023/04/17 02:53:02;;;;;;;21.23;18.97;;;12.50;79.70;;;15.37;54.65;102469.72;5035071;28;20647;-61
2023/04/17 02:55:29;;;;;;;23.10;19.23;;;12.60;79.60;;;15.38;54.45;102478.50;5034459;28;20213;-62
2023/04/17 02:57:56;;;;;;;20.37;18.17;;;12.50;79.40;;;15.37;54.41;102472.38;5035128;28;20186;-60
2023/04/17 03:00:23;;;;;;;20.67;17.50;;;12.50;79.20;;;15.32;54.34;102473.84;5034557;28;20194;-62
2023/04/17 03:02:51;;;;;;;20.77;18.00;;;12.50;79.10;;;15.26;54.29;102479.81;5034716;28;20187;-61
2023/04/17 03:05:22;;;;;;;23.63;20.17;;;12.50;79.20;;;15.24;54.36;102481.75;5034499;28;20202;-60
2023/04/17 03:07:50;;;;;;;22.57;19.40;;;12.40;79.30;;;15.21;54.38;102476.81;5034354;28;20194;-59
2023/04/17 03:10:18;;;;;;;22.23;18.87;;;12.40;79.40;;;15.18;54.68;102485.06;5034835;28;20198;-62
2023/04/17 03:12:45;;;;;;;22.13;19.73;;;12.30;79.50;;;15.16;54.34;102484.41;5033601;28;20198;-62
2023/04/17 03:15:13;;;;;;;22.47;19.90;;;12.30;79.50;;;15.13;54.67;102490.03;5034069;28;20622;-61
2023/04/17 03:17:40;;;;;;;23.57;18.03;;;12.30;79.60;;;15.09;54.43;102484.22;5034966;28;20601;-60
2023/04/17 03:20:08;;;;;;;21.13;18.83;;;12.20;79.50;;;15.05;54.65;102490.03;5034941;28;20198;-60
2023/04/17 03:22:35;;;;;;;26.40;22.13;;;12.20;79.50;;;15.02;54.62;102495.63;5036440;28;20186;-60
2023/04/17 03:25:05;;;;;;;23.17;19.30;;;12.20;79.80;;;14.98;54.65;102492.47;5035079;28;20615;-60
2023/04/17 03:27:32;;;;;;;22.70;20.10;;;12.20;80.00;;;14.95;54.55;102491.97;5034387;28;20293;-63
2023/04/17 03:29:59;;;;;;;21.83;19.57;;;12.10;79.90;;;14.93;54.77;102499.25;5034503;28;20191;-60
2023/04/17 03:32:26;;;;;;;22.67;19.00;;;12.10;80.00;;;14.90;54.89;102489.78;5034549;28;20194;-62
2023/04/17 03:34:53;;;;;;;21.67;19.30;;;12.10;80.00;;;14.87;54.82;102490.94;5034339;28;20218;-59
2023/04/17 03:37:20;;;;;;;21.60;19.30;;;12.00;80.10;;;14.85;54.85;102495.56;5034227;28;20213;-60
2023/04/17 03:39:47;;;;;;;22.17;18.10;;;12.00;80.20;;;14.81;54.79;102499.50;5033686;28;20284;-62
2023/04/17 03:42:15;;;;;;;25.50;20.67;;;12.00;80.10;;;14.79;54.84;102493.53;5034180;28;20226;-60
2023/04/17 03:44:42;;;;;;;24.87;19.97;;;11.90;80.10;;;14.76;55.00;102496.50;5032376;28;20574;-60
2023/04/17 03:47:09;;;;;;;21.60;18.43;;;11.90;80.30;;;14.74;55.16;102501.13;5049472;28;20199;-61
2023/04/17 03:49:36;;;;;;;24.53;20.33;;;11.90;80.60;;;14.73;55.08;102510.09;5033936;28;20697;-58
2023/04/17 03:52:04;;;;;;;21.67;18.83;;;11.90;80.80;;;14.69;55.17;102503.44;5034139;28;20205;-61
2023/04/17 03:54:34;;;;;;;23.30;20.37;;;11.90;81.00;;;14.70;55.37;102506.91;5033634;28;20586;-61
2023/04/17 03:57:01;;;;;;;22.07;18.03;;;11.80;81.00;;;14.68;55.49;102507.09;5034041;28;20179;-60
2023/04/17 03:59:31;;;;;;;24.53;21.03;;;11.80;80.90;;;14.69;55.71;102514.03;5032350;28;20734;-60
2023/04/17 04:01:58;;;;;;;25.07;22.37;;;11.80;81.30;;;14.69;55.73;102514.03;5016996;28;20639;-59
2023/04/17 04:04:25;;;;;;;22.93;19.60;;;11.90;81.40;;;14.70;55.74;102510.41;5033547;28;20237;-61
2023/04/17 04:06:56;;;;;;;22.23;18.80;;;11.90;81.30;;;14.74;56.03;102505.59;5033618;28;20221;-62
2023/04/17 04:09:26;;;;;;;25.20;20.90;;;11.90;81.40;;;14.77;55.89;102511.44;5033715;28;20193;-61
2023/04/17 04:11:53;;;;;;;21.90;19.37;;;11.90;81.40;;;14.80;55.94;102516.44;5033942;28;20206;-61
2023/04/17 04:14:20;;;;;;;20.60;18.50;;;11.90;81.30;;;14.81;55.79;102515.41;5033609;28;20217;-61
2023/04/17 04:16:49;;;;;;;21.03;18.87;;;12.00;81.30;;;14.84;55.70;102524.88;5034033;28;20214;-60
2023/04/17 04:19:16;;;;;;;23.80;21.20;;;12.00;81.30;;;14.86;55.60;102529.03;5013784;28;20651;-61
2023/04/17 04:21:44;;;;;;;21.47;19.20;;;12.00;81.30;;;14.87;55.59;102528.06;5031641;28;20218;-61
2023/04/17 04:24:12;;;;;;;22.60;19.33;;;12.00;81.10;;;14.88;55.53;102529.72;5033345;28;20289;-61
2023/04/17 04:26:40;;;;;;;25.00;21.73;;;12.00;80.80;;;14.90;55.48;102533.03;5033648;28;20183;-59
2023/04/17 04:29:07;;;;;;;28.47;21.67;;;12.00;81.00;;;14.91;55.34;102534.69;5033053;28;20190;-60
2023/04/17 04:31:36;;;;;;;22.00;19.63;;;12.10;81.00;;;14.94;55.87;102533.56;5033326;28;20248;-60
2023/04/17 04:34:06;;;;;;;23.73;20.67;;;12.10;81.20;;;14.98;55.67;102537.53;5032643;28;20218;-61
2023/04/17 04:36:35;;;;;;;23.47;20.90;;;12.10;81.00;;;15.00;55.70;102542.72;5031850;28;20210;-59
2023/04/17 04:39:05;;;;;;;24.10;21.47;;;12.20;80.90;;;15.02;55.80;102536.25;5032046;28;20195;-59
2023/04/17 04:41:32;;;;;;;25.40;21.27;;;12.20;80.80;;;15.05;55.29;102540.41;5032049;28;20182;-60
2023/04/17 04:44:02;;;;;;;23.90;21.40;;;12.20;80.70;;;15.08;55.44;102542.72;5032426;28;20230;-57
2023/04/17 04:46:29;;;;;;;23.50;21.00;;;12.20;80.60;;;15.09;55.44;102544.41;5032961;28;20186;-61
2023/04/17 04:48:56;;;;;;;23.73;21.07;;;12.30;80.60;;;15.10;55.68;102546.03;5032854;28;20194;-60
2023/04/17 04:51:25;;;;;;;22.37;19.63;;;12.30;80.60;;;15.12;55.54;102541.44;5033258;28;20493;-61
2023/04/17 04:53:52;;;;;;;21.40;19.00;;;12.30;80.60;;;15.15;55.14;102543.75;5049051;28;20194;-61
2023/04/17 04:56:20;;;;;;;22.83;20.50;;;12.30;80.40;;;15.16;55.40;102543.59;5033740;28;20613;-61
2023/04/17 04:58:47;;;;;;;23.93;20.57;;;12.40;80.50;;;15.19;55.56;102547.75;5032935;28;20213;-59
2023/04/17 05:01:14;;;;;;;23.57;19.27;;;12.40;80.50;;;15.21;55.24;102551.09;5033106;28;20191;-60
2023/04/17 05:03:43;;;;;;;23.20;20.63;;;12.40;80.30;;;15.23;55.02;102554.41;5032047;28;20281;-60
2023/04/17 05:06:12;;;;;;;22.63;20.33;;;12.40;80.40;;;15.23;55.04;102554.41;5032596;28;20187;-58
2023/04/17 05:08:40;;;;;;;23.83;21.33;;;12.40;80.10;;;15.23;55.23;102557.91;5032503;28;20198;-59
2023/04/17 05:11:07;;;;;;;25.13;20.17;;;12.40;80.50;;;15.25;55.13;102561.22;5032298;28;20202;-60
2023/04/17 05:13:34;;;;;;;22.70;19.83;;;12.40;80.50;;;15.29;55.18;102562.53;5034736;28;20213;-61
2023/04/17 05:16:01;;;;;;;23.83;20.87;;;12.50;80.60;;;15.34;55.27;102564.72;5036559;28;20217;-58
2023/04/17 05:18:28;;;;;;;21.30;19.03;;;12.50;80.60;;;15.40;55.03;102566.75;5036411;28;20601;-56
2023/04/17 05:20:55;;;;;;;20.43;18.30;;;12.50;80.40;;;15.42;54.63;102560.28;5036587;28;20198;-60
2023/04/17 05:23:22;;;;;;;21.83;19.43;;;12.60;79.80;;;15.44;54.60;102562.75;5036230;28;20206;-59
2023/04/17 05:25:51;;;;;;;23.17;19.07;;;12.50;79.80;;;15.45;54.57;102569.78;5036605;28;20211;-60
2023/04/17 05:28:18;;;;;;;23.73;19.63;;;12.60;79.90;;;15.47;54.46;102573.09;5034764;28;20222;-62
2023/04/17 05:30:46;;;;;;;23.53;20.70;;;12.60;80.00;;;15.49;54.37;102573.75;5036470;28;20674;-60
2023/04/17 05:33:14;;;;;;;29.17;23.60;;;12.60;79.90;;;15.49;54.58;102579.06;5037122;28;20278;-63
2023/04/17 05:35:41;;;;;;;28.43;23.00;;;12.60;79.80;;;15.51;54.47;102574.44;5035713;28;20637;-60
2023/04/17 05:38:08;;;;;;;26.73;23.47;;;12.70;80.00;;;15.54;54.43;102584.72;5035897;28;20233;-60
2023/04/17 05:40:35;;;;;;;26.87;21.30;;;12.60;79.80;;;15.57;54.52;102584.38;5036163;28;20198;-65
2023/04/17 05:43:08;;;;;;;27.10;21.77;;;12.70;79.80;;;15.60;54.19;102586.72;5036357;28;20304;-62
2023/04/17 05:45:36;;;;;;;27.37;22.00;;;12.70;79.50;;;15.61;54.21;102579.59;5035851;28;20213;-61
2023/04/17 05:48:03;;;;;;;24.97;21.30;;;12.70;79.10;;;15.58;53.66;102580.75;5035767;28;20198;-63
2023/04/17 05:50:30;;;;;;;27.10;22.83;;;12.80;78.90;;;15.57;54.03;102579.06;5038507;28;20245;-60
2023/04/17 05:52:57;;;;;;;32.03;25.97;;;12.70;78.90;;;15.59;54.17;102583.22;5051374;28;20198;-63
2023/04/17 05:55:24;;;;;;;23.33;20.83;;;12.70;79.20;;;15.64;54.18;102584.59;5050853;28;20622;-66
2023/04/17 05:57:51;;;;;;;23.53;21.00;;;12.70;79.10;;;15.66;54.05;102583.44;5028718;28;20187;-62
2023/04/17 06:00:21;;;;;;;23.60;19.17;;;12.80;79.20;;;15.71;54.06;102580.28;5034404;28;20194;-62
2023/04/17 06:02:48;;;;;;;22.17;19.77;;;12.80;79.40;;;15.76;54.01;102584.09;5033871;28;20566;-61
2023/04/17 06:05:16;;;;;;;25.57;20.23;;;12.80;79.20;;;15.81;53.80;102583.66;5035415;28;20214;-61
2023/04/17 06:07:43;;;;;;;24.47;21.40;;;12.80;79.20;;;15.85;53.63;102591.13;5035528;28;20203;-62
2023/04/17 06:10:10;;;;;;;21.50;19.20;;;12.90;79.20;;;15.90;53.48;102594.09;5035313;28;20191;-63
2023/04/17 06:12:38;;;;;;;22.90;19.20;;;12.90;79.10;;;15.98;53.80;102598.59;5033704;28;20210;-63
2023/04/17 06:15:08;;;;;;;26.10;21.73;;;13.00;79.20;;;16.04;53.23;102597.94;5034397;28;20214;-59
2023/04/17 06:17:38;;;;;;;25.87;22.70;;;13.00;78.80;;;16.05;53.41;102597.78;5035364;28;20206;-61
2023/04/17 06:20:10;;;;;;;25.50;22.80;;;13.10;78.70;;;16.10;53.42;102603.44;5035317;28;20578;-60
2023/04/17 06:22:38;;;;;;;23.07;20.57;;;13.10;78.50;;;16.16;53.24;102602.75;5032380;28;20207;-62
2023/04/17 06:25:07;;;;;;;25.00;21.97;;;13.10;78.40;;;16.22;52.80;102604.75;5027803;28;20231;-62
2023/04/17 06:27:34;;;;;;;21.87;19.37;;;13.10;78.30;;;16.28;52.96;102601.44;5029167;28;20218;-65
2023/04/17 06:30:15;;;;;;;23.27;20.50;;;13.20;78.60;;;16.35;52.84;102606.09;5051196;28;20707;-65
2023/04/17 06:33:01;;;;;;;23.83;21.23;;;13.20;78.60;;;16.40;52.73;102609.09;5035825;28;20230;-65
2023/04/17 06:36:02;;;;;;;23.23;19.37;;;13.30;78.10;;;16.41;52.57;102610.75;5034089;28;20206;-65
2023/04/17 06:38:41;;;;;;;22.37;19.97;;;13.30;78.20;;;16.48;52.67;102611.72;5037278;28;20223;-63
2023/04/17 06:41:33;;;;;;;;;;;;;;;;;;;;;
2023/04/17 06:44:40;;;;;;;24.13;21.53;;;13.50;78.00;;;16.66;52.12;102615.09;5035082;28;20280;-64
2023/04/17 06:47:47;;;;;;;24.53;21.93;;;13.60;77.60;;;16.70;52.26;102621.72;5023267;28;20298;-62
2023/04/17 06:50:31;;;;;;;25.83;23.07;;;13.60;77.10;;;16.73;52.01;102616.91;5035943;28;20708;-65
2023/04/17 06:53:13;;;;;;;40.80;36.40;;;13.70;77.20;;;16.79;52.02;102623.38;5034687;28;20655;-63
2023/04/17 06:58:58;;;;;;;28.53;23.00;;;13.80;77.40;;;16.94;51.64;102624.34;5032459;28;20224;-63
2023/04/17 07:01:48;;;;;;;22.50;20.17;;;13.80;76.90;;;17.01;51.53;102635.97;5018100;28;20214;-65
2023/04/17 07:04:43;;;;;;;25.60;21.57;;;13.90;77.10;;;17.10;51.40;102624.31;5018277;28;20222;-64
2023/04/17 07:07:41;;;;;;;26.00;21.50;;;14.00;76.80;;;17.17;51.30;102627.94;5021870;28;20226;-64
2023/04/17 07:10:49;;;;;;;23.63;21.10;;;14.00;76.50;;;17.30;50.92;102632.72;5037031;28;20275;-66
2023/04/17 07:13:31;;;;;;;22.20;19.67;;;14.10;76.50;;;17.45;50.82;102636.31;5034082;28;20198;-63
2023/04/17 07:16:01;;;;;;;24.27;21.70;;;14.20;76.00;;;17.62;50.52;102637.94;5042860;28;20218;-63
2023/04/17 07:18:30;;;;;;;24.87;22.27;;;14.30;76.30;;;17.79;50.00;102638.69;5032438;28;20217;-59
2023/04/17 07:20:57;;;;;;;25.10;22.33;;;14.40;75.90;;;17.88;49.42;102645.63;5033828;28;20217;-58
2023/04/17 07:23:25;;;;;;;23.77;21.03;;;14.50;75.40;;;17.97;49.33;102645.41;5033517;28;20191;-63
2023/04/17 07:25:52;;;;;;;25.23;22.57;;;14.60;75.10;;;18.10;49.06;102650.16;5033428;28;20221;-61
2023/04/17 07:28:20;;;;;;;26.80;23.33;;;14.70;74.60;;;18.25;48.96;102638.56;5048977;28;20217;-60
2023/04/17 07:30:47;;;;;;;22.40;20.10;;;14.80;74.60;;;18.45;48.62;102648.72;5033366;28;20194;-61
2023/04/17 07:33:14;;;;;;;23.37;20.97;;;14.90;74.60;;;18.62;48.21;102648.44;5034515;28;20214;-63
2023/04/17 07:35:42;;;;;;;22.30;20.03;;;15.00;74.60;;;18.74;47.73;102655.00;5034160;28;20221;-60
2023/04/17 07:38:09;;;;;;;23.00;19.40;;;15.20;73.30;;;18.84;47.88;102655.59;5032985;28;20294;-60
2023/04/17 07:40:38;;;;;;;25.17;20.23;;;15.30;72.60;;;18.98;47.46;102661.97;5049198;28;20198;-60
2023/04/17 07:43:05;;;;;;;24.50;20.87;;;15.40;72.00;;;19.16;47.09;102658.94;5029019;28;20206;-60
2023/04/17 07:45:38;;;;;;;23.30;20.70;;;15.50;72.00;;;19.41;46.49;102657.69;5046293;28;20578;-60
2023/04/17 07:48:11;;;;;;;22.67;20.17;;;15.70;71.80;;;19.68;45.96;102659.69;5047088;28;20304;-60
2023/04/17 07:50:38;;;;;;;20.47;18.47;;;15.90;71.20;;;19.92;45.49;102662.00;5032258;28;20199;-58
2023/04/17 07:53:06;;;;;;;21.23;18.60;;;16.10;70.10;;;20.13;45.14;102664.69;5033643;28;20212;-59
2023/04/17 07:55:33;;;;;;;21.30;19.10;;;16.30;69.30;;;20.33;44.64;102664.09;5031324;28;20220;-60
2023/04/17 07:58:02;;;;;;;22.77;19.60;;;16.40;68.50;;;20.56;43.94;102662.06;5033808;28;20217;-61
2023/04/17 08:00:30;;;;;;;22.93;20.00;;;16.60;68.20;;;20.74;43.69;102667.78;5019096;28;20192;-59
2023/04/17 08:02:57;;;;;;;24.83;20.30;;;16.80;67.70;;;20.90;42.52;102667.47;5022435;28;20191;-59
2023/04/17 08:05:24;;;;;;;21.47;19.30;;;17.00;66.60;;;21.19;42.12;102661.09;5025109;28;20211;-61
2023/04/17 08:07:52;;;;;;;20.97;18.13;;;17.20;66.20;;;22.23;41.34;102661.53;5028595;28;20194;-61
2023/04/17 08:10:19;;;;;;;51.17;46.33;;;17.50;65.80;;;23.70;39.20;102652.06;5027932;28;20206;-60
2023/04/17 08:12:46;;;;;;;22.00;19.80;;;18.00;66.30;;;25.27;36.91;102656.22;5033535;28;20217;-60
2023/04/17 08:15:14;;;;;;;18.60;16.73;;;18.80;64.40;;;26.54;34.15;102655.97;5033216;28;20301;-60
2023/04/17 08:17:42;;;;;;;18.80;17.00;;;19.70;60.40;;;27.39;32.09;102656.31;5015931;28;20226;-62
2023/04/17 08:20:10;;;;;;;20.10;18.10;;;20.50;58.40;;;28.09;31.21;102657.72;5034477;28;20207;-62
2023/04/17 08:22:41;;;;;;;19.87;17.27;;;21.30;55.90;;;28.66;29.76;102652.16;5028378;28;20273;-62
2023/04/17 08:25:10;;;;;;;19.57;17.53;;;22.00;53.00;;;29.20;29.09;102656.75;5032102;28;20213;-59
2023/04/17 08:27:39;;;;;;;18.03;15.23;;;22.60;51.90;;;29.77;28.22;102665.34;5032084;28;20197;-62
2023/04/17 08:30:09;;;;;;;17.40;15.70;;;23.20;51.00;;;30.33;27.63;102660.44;5031816;28;20206;-61
2023/04/17 08:32:44;;;;;;;16.90;15.40;;;23.80;48.10;;;30.88;26.49;102658.13;5031439;28;20187;-59
2023/04/17 08:35:13;;;;;;;16.40;14.80;;;24.20;46.20;;;31.44;24.77;102662.03;5031273;28;20214;-61
2023/04/17 08:37:43;;;;;;;17.10;15.27;;;24.60;43.30;;;31.91;23.78;102668.13;5033175;28;20210;-62
2023/04/17 08:40:11;;;;;;;16.60;15.10;;;25.10;42.00;;;32.35;23.09;102659.47;5020388;28;20203;-62
2023/04/17 08:42:41;;;;;;;14.13;12.83;;;25.40;40.90;;;32.91;23.57;102671.13;5033286;28;20198;-64
2023/04/17 08:45:11;;;;;;;14.77;13.47;;;25.90;41.20;;;33.16;22.06;102663.72;5032862;28;20219;-60
2023/04/17 08:47:41;;;;;;;15.57;14.07;;;26.20;37.90;;;33.10;22.55;102664.84;5036044;28;20697;-63
2023/04/17 08:50:11;;;;;;;15.20;13.60;;;26.50;37.20;;;33.18;22.38;102667.00;5035220;28;20202;-62
2023/04/17 08:52:39;;;;;;;14.47;12.60;;;26.70;36.60;;;33.49;21.33;102658.66;5041296;28;20198;-62
2023/04/17 08:55:08;;;;;;;17.77;16.07;;;26.90;35.80;;;33.93;21.14;102663.06;5017025;28;20226;-61
2023/04/17 08:57:36;;;;;;;14.43;13.13;;;27.10;35.50;;;34.33;20.41;102653.72;5023457;28;20244;-63
2023/04/17 09:00:10;;;;;;;18.83;17.03;;;27.40;33.80;;;34.69;19.60;102655.06;5037217;28;20532;-66
2023/04/17 09:02:53;;;;;;;17.57;15.77;;;27.60;34.00;;;35.07;19.42;102655.19;5036976;28;20655;-60
2023/04/17 09:05:22;;;;;;;15.73;14.27;;;27.90;33.40;;;35.30;18.56;102648.91;5036035;28;20219;-60
2023/04/17 09:08:05;;;;;;;14.40;13.07;;;28.10;32.60;;;35.62;18.97;102657.25;5035460;28;20217;-63
2023/04/17 09:10:36;;;;;;;13.23;11.85;;;28.40;31.30;;;35.83;18.19;102653.09;5033769;28;20572;-62
2023/04/17 09:13:04;;;;;;;13.40;12.30;;;28.70;30.80;;;35.94;17.49;102660.03;5035118;28;20206;-61
2023/04/17 09:15:31;;;;;;;14.45;12.95;;;28.90;29.80;;;36.10;17.93;102657.06;5034948;28;20230;-61
2023/04/17 09:18:00;;;;;;;15.10;13.80;;;28.90;29.70;;;36.32;16.96;102649.03;5018727;28;20221;-64
2023/04/17 09:20:28;;;;;;;13.25;12.07;;;29.10;29.00;;;36.42;17.50;102648.84;5031796;28;20616;-61
2023/04/17 09:23:02;;;;;;;11.88;10.98;;;29.40;28.70;;;36.56;17.01;102650.50;5018204;28;20278;-64
2023/04/17 09:25:30;;;;;;;15.68;11.57;;;29.50;28.50;;;36.64;17.35;102651.75;5028868;28;20251;-62
2023/04/17 09:28:10;;;;;;;11.05;9.95;;;29.70;28.30;;;36.96;16.47;102648.94;5050786;28;20207;-63
2023/04/17 09:30:38;;;;;;;13.38;12.27;;;29.80;27.30;;;36.98;16.04;102645.88;5034661;28;20269;-64
2023/04/17 09:33:09;;;;;;;14.07;12.68;;;29.80;26.20;;;36.60;15.41;102650.72;5034569;28;20198;-60
2023/04/17 09:35:40;;;;;;;11.93;10.82;;;29.70;26.00;;;36.59;16.03;102643.59;5035186;28;20289;-63
2023/04/17 09:38:07;;;;;;;13.45;12.02;;;29.70;26.80;;;36.55;15.94;102648.06;5035485;28;20306;-60
2023/04/17 09:40:40;;;;;;;13.98;12.60;;;29.60;25.80;;;36.18;15.87;102653.66;5036694;28;20202;-61
2023/04/17 09:43:09;;;;;;;13.50;12.30;;;29.50;25.90;;;36.23;15.82;102648.09;5041119;28;20278;-63
2023/04/17 09:45:40;;;;;;;16.77;15.27;;;29.50;26.50;;;36.58;16.54;102647.47;5036047;28;20230;-60
2023/04/17 09:48:12;;;;;;;11.15;10.18;;;29.70;27.30;;;36.80;16.06;102644.81;5036149;28;20182;-61
2023/04/17 09:50:39;;;;;;;12.55;11.48;;;29.80;26.30;;;37.15;15.26;102646.09;5035793;28;20305;-64
2023/04/17 09:53:07;;;;;;;13.60;12.35;;;30.00;26.10;;;37.12;15.60;102647.50;5035889;28;20187;-63
2023/04/17 09:55:36;;;;;;;12.05;10.50;;;30.00;25.80;;;37.27;14.85;102644.44;5035170;28;20210;-64
2023/04/17 09:58:06;;;;;;;11.75;10.73;;;30.00;25.40;;;37.27;15.72;102643.63;5034377;28;20293;-62
2023/04/17 10:00:35;;;;;;;10.90;9.90;;;30.10;25.90;;;37.36;15.48;102640.94;5035096;28;20237;-63
2023/04/17 10:03:03;;;;;;;9.70;8.90;;;30.30;25.70;;;37.53;14.99;102646.66;5035267;28;20189;-63
2023/04/17 10:05:31;;;;;;;11.07;10.07;;;30.50;25.00;;;37.55;14.33;102649.88;5034589;28;20241;-62
2023/04/17 10:07:59;;;;;;;11.32;9.93;;;30.50;24.20;;;37.52;14.67;102650.50;5050507;28;20589;-63
2023/04/17 10:10:31;;;;;;;9.73;8.93;;;30.50;24.60;;;37.51;14.37;102643.41;5033185;28;20202;-61
2023/04/17 10:13:00;;;;;;;8.50;7.72;;;30.50;24.20;;;37.31;14.17;102642.69;5033429;28;20206;-61